sensor_id;sensor_type;location;lat;lon;timestamp;pressure;altitude;pressure_sealevel;temperature;humidity
49030;BME280;43337;52.070;4.508;2023-07-31T00:00:07;101094.38;;;16.47;100.00
49030;BME280;43337;52.070;4.508;2023-07-31T00:02:34;101106.44;;;16.53;100.00
49030;BME280;43337;52.070;4.508;2023-07-31T00:05:00;101091.00;;;16.45;100.00
49030;BME280;43337;52.070;4.508;2023-07-31T00:07:25;101097.16;;;16.46;100.00
49030;BME280;43337;52.070;4.508;2023-07-31T00:09:50;101101.50;;;16.47;100.00
49030;BME280;43337;52.070;4.508;2023-07-31T00:12:16;101086.63;;;16.30;100.00
49030;BME280;43337;52.070;4.508;2023-07-31T00:14:41;101078.66;;;16.30;100.00
49030;BME280;43337;52.070;4.508;2023-07-31T00:17:07;101103.31;;;16.46;100.00
49030;BME280;43337;52.070;4.508;2023-07-31T00:19:32;101060.31;;;16.25;100.00
49030;BME280;43337;52.070;4.508;2023-07-31T00:21:57;101081.56;;;16.40;100.00
49030;BME280;43337;52.070;4.508;2023-07-31T00:24:23;101092.88;;;16.43;100.00
49030;BME280;43337;52.070;4.508;2023-07-31T00:26:48;101077.97;;;16.41;100.00
49030;BME280;43337;52.070;4.508;2023-07-31T00:29:13;101084.13;;;16.41;100.00
49030;BME280;43337;52.070;4.508;2023-07-31T00:31:39;101076.44;;;16.36;100.00
49030;BME280;43337;52.070;4.508;2023-07-31T00:34:04;101070.94;;;16.40;100.00
49030;BME280;43337;52.070;4.508;2023-07-31T00:36:29;101058.56;;;16.26;100.00
49030;BME280;43337;52.070;4.508;2023-07-31T00:38:55;101087.00;;;16.38;100.00
49030;BME280;43337;52.070;4.508;2023-07-31T00:41:20;101087.09;;;16.36;100.00
49030;BME280;43337;52.070;4.508;2023-07-31T00:43:46;101087.09;;;16.36;100.00
49030;BME280;43337;52.070;4.508;2023-07-31T00:46:11;101084.72;;;16.32;100.00
49030;BME280;43337;52.070;4.508;2023-07-31T00:48:37;101082.25;;;16.29;100.00
49030;BME280;43337;52.070;4.508;2023-07-31T00:51:03;101079.13;;;16.22;100.00
49030;BME280;43337;52.070;4.508;2023-07-31T00:53:29;101088.88;;;16.36;100.00
49030;BME280;43337;52.070;4.508;2023-07-31T00:55:54;101072.28;;;16.32;100.00
49030;BME280;43337;52.070;4.508;2023-07-31T00:58:20;101084.72;;;16.32;100.00
49030;BME280;43337;52.070;4.508;2023-07-31T01:00:45;101081.09;;;16.33;100.00
49030;BME280;43337;52.070;4.508;2023-07-31T01:12:15;101079.69;;;16.27;100.00
49030;BME280;43337;52.070;4.508;2023-07-31T01:14:51;101076.09;;;16.28;100.00
49030;BME280;43337;52.070;4.508;2023-07-31T01:17:17;101073.81;;;16.22;100.00
49030;BME280;43337;52.070;4.508;2023-07-31T01:19:42;101077.22;;;16.24;100.00
49030;BME280;43337;52.070;4.508;2023-07-31T01:22:44;101072.94;;;16.22;100.00
49030;BME280;43337;52.070;4.508;2023-07-31T01:28:19;101078.25;;;16.22;100.00
49030;BME280;43337;52.070;4.508;2023-07-31T01:30:47;101071.16;;;16.22;100.00
49030;BME280;43337;52.070;4.508;2023-07-31T01:33:15;101071.25;;;16.21;100.00
49030;BME280;43337;52.070;4.508;2023-07-31T01:35:43;101049.44;;;16.16;100.00
49030;BME280;43337;52.070;4.508;2023-07-31T01:38:09;101069.44;;;16.21;100.00
49030;BME280;43337;52.070;4.508;2023-07-31T01:40:35;101060.53;;;16.22;100.00
49030;BME280;43337;52.070;4.508;2023-07-31T01:43:00;101060.63;;;16.21;100.00
49030;BME280;43337;52.070;4.508;2023-07-31T01:45:26;101047.53;;;16.18;100.00
49030;BME280;43337;52.070;4.508;2023-07-31T01:47:51;101038.53;;;16.20;100.00
49030;BME280;43337;52.070;4.508;2023-07-31T01:50:17;101038.41;;;16.22;100.00
49030;BME280;43337;52.070;4.508;2023-07-31T01:52:42;101005.25;;;16.00;100.00
49030;BME280;43337;52.070;4.508;2023-07-31T01:55:07;101031.03;;;16.27;100.00
49030;BME280;43337;52.070;4.508;2023-07-31T01:57:33;101022.47;;;16.22;100.00
49030;BME280;43337;52.070;4.508;2023-07-31T01:59:58;101025.13;;;16.22;100.00
49030;BME280;43337;52.070;4.508;2023-07-31T02:02:24;101006.34;;;16.25;100.00
49030;BME280;43337;52.070;4.508;2023-07-31T02:04:49;101012.31;;;16.28;100.00
49030;BME280;43337;52.070;4.508;2023-07-31T02:07:15;100980.84;;;16.08;100.00
49030;BME280;43337;52.070;4.508;2023-07-31T02:09:40;101016.78;;;16.28;100.00
49030;BME280;43337;52.070;4.508;2023-07-31T02:12:06;101002.66;;;16.27;100.00
49030;BME280;43337;52.070;4.508;2023-07-31T02:14:34;101000.84;;;16.28;100.00
49030;BME280;43337;52.070;4.508;2023-07-31T02:20:21;100991.66;;;16.19;100.00
49030;BME280;43337;52.070;4.508;2023-07-31T02:22:46;100986.22;;;16.21;100.00
49030;BME280;43337;52.070;4.508;2023-07-31T02:25:12;101001.97;;;16.24;100.00
49030;BME280;43337;52.070;4.508;2023-07-31T02:27:37;100995.81;;;16.23;100.00
49030;BME280;43337;52.070;4.508;2023-07-31T02:30:03;101001.59;;;16.30;100.00
49030;BME280;43337;52.070;4.508;2023-07-31T02:32:28;100993.81;;;16.27;100.00
49030;BME280;43337;52.070;4.508;2023-07-31T02:34:54;100997.22;;;16.29;100.00
49030;BME280;43337;52.070;4.508;2023-07-31T02:37:19;100993.91;;;16.25;100.00
49030;BME280;43337;52.070;4.508;2023-07-31T02:39:44;100995.34;;;16.31;100.00
49030;BME280;43337;52.070;4.508;2023-07-31T02:42:11;100992.75;;;16.29;100.00
49030;BME280;43337;52.070;4.508;2023-07-31T02:44:36;100994.38;;;16.32;100.00
49030;BME280;43337;52.070;4.508;2023-07-31T02:47:02;100986.59;;;16.29;100.00
49030;BME280;43337;52.070;4.508;2023-07-31T02:49:28;100985.56;;;16.31;100.00
49030;BME280;43337;52.070;4.508;2023-07-31T02:51:53;100984.72;;;16.31;100.00
49030;BME280;43337;52.070;4.508;2023-07-31T02:54:19;100971.50;;;16.29;100.00
49030;BME280;43337;52.070;4.508;2023-07-31T02:56:46;100974.28;;;16.28;100.00
49030;BME280;43337;52.070;4.508;2023-07-31T02:59:12;100962.25;;;16.22;100.00
49030;BME280;43337;52.070;4.508;2023-07-31T03:01:37;100970.09;;;16.24;100.00
49030;BME280;43337;52.070;4.508;2023-07-31T03:04:03;100962.97;;;16.24;100.00
49030;BME280;43337;52.070;4.508;2023-07-31T03:06:29;100949.81;;;16.23;100.00
49030;BME280;43337;52.070;4.508;2023-07-31T03:08:54;100948.19;;;16.20;100.00
49030;BME280;43337;52.070;4.508;2023-07-31T03:11:20;100950.00;;;16.20;100.00
49030;BME280;43337;52.070;4.508;2023-07-31T03:13:45;100962.97;;;16.24;100.00
49030;BME280;43337;52.070;4.508;2023-07-31T03:16:10;100957.97;;;16.20;100.00
49030;BME280;43337;52.070;4.508;2023-07-31T03:18:36;100942.03;;;16.20;100.00
49030;BME280;43337;52.070;4.508;2023-07-31T03:21:01;100961.09;;;16.26;100.00
49030;BME280;43337;52.070;4.508;2023-07-31T03:23:26;100950.53;;;16.25;100.00
49030;BME280;43337;52.070;4.508;2023-07-31T03:25:59;100943.44;;;16.25;100.00
49030;BME280;43337;52.070;4.508;2023-07-31T03:28:25;100955.66;;;16.28;100.00
49030;BME280;43337;52.070;4.508;2023-07-31T03:30:51;100947.03;;;16.24;100.00
49030;BME280;43337;52.070;4.508;2023-07-31T03:33:18;100947.69;;;16.28;100.00
49030;BME280;43337;52.070;4.508;2023-07-31T03:35:43;100944.19;;;16.27;100.00
49030;BME280;43337;52.070;4.508;2023-07-31T03:38:09;100940.78;;;16.25;100.00
49030;BME280;43337;52.070;4.508;2023-07-31T03:40:34;100927.91;;;16.19;100.00
49030;BME280;43337;52.070;4.508;2023-07-31T03:43:02;100933.03;;;16.22;100.00
49030;BME280;43337;52.070;4.508;2023-07-31T03:45:27;100917.81;;;16.24;100.00
49030;BME280;43337;52.070;4.508;2023-07-31T03:47:53;100928.38;;;16.26;100.00
49030;BME280;43337;52.070;4.508;2023-07-31T03:50:19;100918.59;;;16.26;100.00
49030;BME280;43337;52.070;4.508;2023-07-31T03:52:45;100913.34;;;16.25;100.00
49030;BME280;43337;52.070;4.508;2023-07-31T03:55:10;100911.19;;;16.17;100.00
49030;BME280;43337;52.070;4.508;2023-07-31T03:57:36;100914.44;;;16.22;100.00
49030;BME280;43337;52.070;4.508;2023-07-31T04:00:01;100897.25;;;16.14;100.00
49030;BME280;43337;52.070;4.508;2023-07-31T04:02:26;100906.53;;;16.21;100.00
49030;BME280;43337;52.070;4.508;2023-07-31T04:04:52;100898.03;;;16.16;100.00
49030;BME280;43337;52.070;4.508;2023-07-31T04:07:17;100859.00;;;15.89;100.00
49030;BME280;43337;52.070;4.508;2023-07-31T04:09:42;100877.00;;;15.98;100.00
49030;BME280;43337;52.070;4.508;2023-07-31T04:12:08;100898.03;;;16.16;100.00
49030;BME280;43337;52.070;4.508;2023-07-31T04:14:33;100877.66;;;16.02;100.00
49030;BME280;43337;52.070;4.508;2023-07-31T04:16:58;100875.19;;;15.99;100.00
49030;BME280;43337;52.070;4.508;2023-07-31T04:19:24;100862.13;;;15.96;100.00
49030;BME280;43337;52.070;4.508;2023-07-31T04:21:49;100885.25;;;16.08;100.00
49030;BME280;43337;52.070;4.508;2023-07-31T04:24:15;100880.00;;;16.06;100.00
49030;BME280;43337;52.070;4.508;2023-07-31T04:26:41;100889.59;;;16.09;100.00
49030;BME280;43337;52.070;4.508;2023-07-31T04:29:06;100877.75;;;16.00;100.00
49030;BME280;43337;52.070;4.508;2023-07-31T04:31:31;100874.81;;;16.05;100.00
49030;BME280;43337;52.070;4.508;2023-07-31T04:33:56;100875.00;;;16.02;100.00
49030;BME280;43337;52.070;4.508;2023-07-31T04:36:22;100833.81;;;15.82;100.00
49030;BME280;43337;52.070;4.508;2023-07-31T04:38:47;100846.41;;;15.93;100.00
49030;BME280;43337;52.070;4.508;2023-07-31T04:41:12;100848.28;;;15.91;100.00
49030;BME280;43337;52.070;4.508;2023-07-31T04:43:38;100893.41;;;16.05;100.00
49030;BME280;43337;52.070;4.508;2023-07-31T04:46:05;100877.47;;;16.05;100.00
49030;BME280;43337;52.070;4.508;2023-07-31T04:48:30;100842.13;;;15.90;100.00
49030;BME280;43337;52.070;4.508;2023-07-31T04:50:55;100871.69;;;15.98;100.00
49030;BME280;43337;52.070;4.508;2023-07-31T04:53:21;100844.22;;;15.85;100.00
49030;BME280;43337;52.070;4.508;2023-07-31T04:55:46;100871.91;;;15.95;100.00
49030;BME280;43337;52.070;4.508;2023-07-31T04:58:11;100861.97;;;15.84;100.00
49030;BME280;43337;52.070;4.508;2023-07-31T05:00:37;100846.84;;;15.72;100.00
49030;BME280;43337;52.070;4.508;2023-07-31T05:03:02;100846.06;;;15.70;100.00
49030;BME280;43337;52.070;4.508;2023-07-31T05:05:27;100855.66;;;15.73;100.00
49030;BME280;43337;52.070;4.508;2023-07-31T05:07:53;100857.53;;;15.71;100.00
49030;BME280;43337;52.070;4.508;2023-07-31T05:10:18;100853.53;;;15.63;100.00
49030;BME280;43337;52.070;4.508;2023-07-31T05:12:44;100853.28;;;15.68;100.00
49030;BME280;43337;52.070;4.508;2023-07-31T05:15:09;100824.16;;;15.52;100.00
49030;BME280;43337;52.070;4.508;2023-07-31T05:17:35;100840.38;;;15.62;100.00
49030;BME280;43337;52.070;4.508;2023-07-31T05:20:00;100821.50;;;15.52;100.00
49030;BME280;43337;52.070;4.508;2023-07-31T05:22:25;100834.78;;;15.52;100.00
49030;BME280;43337;52.070;4.508;2023-07-31T05:24:51;100826.91;;;15.51;100.00
49030;BME280;43337;52.070;4.508;2023-07-31T05:27:16;100829.09;;;15.58;100.00
49030;BME280;43337;52.070;4.508;2023-07-31T05:29:44;100805.41;;;15.41;100.00
49030;BME280;43337;52.070;4.508;2023-07-31T05:32:09;100793.28;;;15.37;100.00
49030;BME280;43337;52.070;4.508;2023-07-31T05:34:34;100793.88;;;15.42;100.00
49030;BME280;43337;52.070;4.508;2023-07-31T05:37:00;100832.25;;;15.65;100.00
49030;BME280;43337;52.070;4.508;2023-07-31T05:39:25;100825.13;;;15.66;100.00
49030;BME280;43337;52.070;4.508;2023-07-31T05:41:50;100827.78;;;15.66;100.00
49030;BME280;43337;52.070;4.508;2023-07-31T05:44:16;100784.94;;;15.43;100.00
49030;BME280;43337;52.070;4.508;2023-07-31T05:49:57;100822.28;;;15.69;100.00
49030;BME280;43337;52.070;4.508;2023-07-31T05:52:22;100819.81;;;15.66;100.00
49030;BME280;43337;52.070;4.508;2023-07-31T05:58:00;100821.03;;;15.74;100.00
49030;BME280;43337;52.070;4.508;2023-07-31T06:00:25;100815.59;;;15.76;100.00
49030;BME280;43337;52.070;4.508;2023-07-31T06:02:50;100811.91;;;15.78;100.00
49030;BME280;43337;52.070;4.508;2023-07-31T06:05:16;100807.56;;;15.77;100.00
49030;BME280;43337;52.070;4.508;2023-07-31T06:07:41;100789.78;;;15.65;100.00
49030;BME280;43337;52.070;4.508;2023-07-31T06:10:07;100775.81;;;15.61;100.00
49030;BME280;43337;52.070;4.508;2023-07-31T06:12:33;100778.84;;;15.70;100.00
49030;BME280;43337;52.070;4.508;2023-07-31T06:14:59;100806.88;;;15.88;100.00
49030;BME280;43337;52.070;4.508;2023-07-31T06:17:24;100784.72;;;15.75;100.00
49030;BME280;43337;52.070;4.508;2023-07-31T06:19:51;100765.59;;;15.70;100.00
49030;BME280;43337;52.070;4.508;2023-07-31T06:22:18;100786.97;;;15.81;100.00
49030;BME280;43337;52.070;4.508;2023-07-31T06:24:44;100790.72;;;15.91;100.00
49030;BME280;43337;52.070;4.508;2023-07-31T06:27:10;100779.34;;;15.89;100.00
49030;BME280;43337;52.070;4.508;2023-07-31T06:29:35;100792.13;;;15.97;100.00
49030;BME280;43337;52.070;4.508;2023-07-31T06:32:01;100797.06;;;16.03;100.00
49030;BME280;43337;52.070;4.508;2023-07-31T06:34:26;100789.16;;;16.01;100.00
49030;BME280;43337;52.070;4.508;2023-07-31T06:36:51;100780.34;;;16.01;100.00
49030;BME280;43337;52.070;4.508;2023-07-31T06:39:17;100788.84;;;16.06;100.00
49030;BME280;43337;52.070;4.508;2023-07-31T06:41:43;100790.06;;;16.15;100.00
49030;BME280;43337;52.070;4.508;2023-07-31T06:44:09;100781.22;;;16.14;100.00
49030;BME280;43337;52.070;4.508;2023-07-31T06:46:34;100776.78;;;16.15;100.00
49030;BME280;43337;52.070;4.508;2023-07-31T06:49:00;100777.31;;;16.20;100.00
49030;BME280;43337;52.070;4.508;2023-07-31T06:51:25;100757.31;;;16.01;100.00
49030;BME280;43337;52.070;4.508;2023-07-31T06:53:51;100789.56;;;16.22;100.00
49030;BME280;43337;52.070;4.508;2023-07-31T06:56:16;100754.13;;;16.09;100.00
49030;BME280;43337;52.070;4.508;2023-07-31T06:58:41;100747.97;;;16.08;100.00
49030;BME280;43337;52.070;4.508;2023-07-31T07:01:07;100744.34;;;16.09;100.00
49030;BME280;43337;52.070;4.508;2023-07-31T07:03:32;100770.09;;;16.22;100.00
49030;BME280;43337;52.070;4.508;2023-07-31T07:05:58;100753.75;;;16.15;100.00
49030;BME280;43337;52.070;4.508;2023-07-31T07:08:24;100780.19;;;16.29;100.00
49030;BME280;43337;52.070;4.508;2023-07-31T07:10:49;100754.66;;;16.14;100.00
49030;BME280;43337;52.070;4.508;2023-07-31T07:13:14;100786.94;;;16.35;100.00
49030;BME280;43337;52.070;4.508;2023-07-31T07:15:40;100773.84;;;16.32;100.00
49030;BME280;43337;52.070;4.508;2023-07-31T07:18:05;100777.25;;;16.34;100.00
49030;BME280;43337;52.070;4.508;2023-07-31T07:20:31;100770.88;;;16.36;100.00
49030;BME280;43337;52.070;4.508;2023-07-31T07:22:56;100760.88;;;16.27;100.00
49030;BME280;43337;52.070;4.508;2023-07-31T07:25:21;100767.88;;;16.41;100.00
49030;BME280;43337;52.070;4.508;2023-07-31T07:27:47;100782.06;;;16.42;100.00
49030;BME280;43337;52.070;4.508;2023-07-31T07:30:12;100753.75;;;16.28;100.00
49030;BME280;43337;52.070;4.508;2023-07-31T07:32:39;100781.63;;;16.48;100.00
49030;BME280;43337;52.070;4.508;2023-07-31T07:35:05;100751.94;;;16.28;100.00
49030;BME280;43337;52.070;4.508;2023-07-31T07:37:30;100785.88;;;16.50;100.00
49030;BME280;43337;52.070;4.508;2023-07-31T07:39:56;100780.38;;;16.53;100.00
49030;BME280;43337;52.070;4.508;2023-07-31T07:42:22;100788.09;;;16.56;100.00
49030;BME280;43337;52.070;4.508;2023-07-31T07:44:48;100780.91;;;16.58;100.00
49030;BME280;43337;52.070;4.508;2023-07-31T07:47:14;100742.41;;;16.39;100.00
49030;BME280;43337;52.070;4.508;2023-07-31T07:49:39;100784.31;;;16.60;100.00
49030;BME280;43337;52.070;4.508;2023-07-31T07:55:26;100772.72;;;16.62;100.00
49030;BME280;43337;52.070;4.508;2023-07-31T07:57:51;100787.38;;;16.67;100.00
49030;BME280;43337;52.070;4.508;2023-07-31T08:00:16;100776.88;;;16.66;100.00
49030;BME280;43337;52.070;4.508;2023-07-31T08:02:43;100761.75;;;16.66;100.00
49030;BME280;43337;52.070;4.508;2023-07-31T08:05:08;100741.13;;;16.57;100.00
49030;BME280;43337;52.070;4.508;2023-07-31T08:07:34;100743.16;;;16.66;100.00
49030;BME280;43337;52.070;4.508;2023-07-31T08:09:59;100740.94;;;16.73;100.00
49030;BME280;43337;52.070;4.508;2023-07-31T08:12:24;100759.69;;;16.84;100.00
49030;BME280;43337;52.070;4.508;2023-07-31T08:14:50;100747.31;;;16.83;100.00
49030;BME280;43337;52.070;4.508;2023-07-31T08:17:15;100758.38;;;16.90;100.00
49030;BME280;43337;52.070;4.508;2023-07-31T08:19:40;100730.72;;;16.79;100.00
49030;BME280;43337;52.070;4.508;2023-07-31T08:22:06;100753.91;;;16.90;100.00
49030;BME280;43337;52.070;4.508;2023-07-31T08:24:31;100749.56;;;16.89;100.00
49030;BME280;43337;52.070;4.508;2023-07-31T08:26:57;100757.19;;;16.94;100.00
49030;BME280;43337;52.070;4.508;2023-07-31T08:29:22;100745.09;;;16.90;100.00
49030;BME280;43337;52.070;4.508;2023-07-31T08:31:49;100735.19;;;16.92;100.00
49030;BME280;43337;52.070;4.508;2023-07-31T08:34:14;100746.56;;;16.94;100.00
49030;BME280;43337;52.070;4.508;2023-07-31T08:36:39;100737.22;;;16.88;100.00
49030;BME280;43337;52.070;4.508;2023-07-31T08:39:05;100736.47;;;16.99;100.00
49030;BME280;43337;52.070;4.508;2023-07-31T08:41:31;100753.91;;;17.03;100.00
49030;BME280;43337;52.070;4.508;2023-07-31T08:43:56;100745.28;;;16.99;100.00
49030;BME280;43337;52.070;4.508;2023-07-31T08:46:23;100750.16;;;17.05;100.00
49030;BME280;43337;52.070;4.508;2023-07-31T08:48:51;100741.34;;;17.05;100.00
49030;BME280;43337;52.070;4.508;2023-07-31T08:51:17;100740.28;;;17.07;100.00
49030;BME280;43337;52.070;4.508;2023-07-31T08:57:00;100750.38;;;17.15;100.00
49030;BME280;43337;52.070;4.508;2023-07-31T08:59:31;100750.03;;;17.20;100.00
49030;BME280;43337;52.070;4.508;2023-07-31T09:02:05;100741.22;;;17.19;100.00
49030;BME280;43337;52.070;4.508;2023-07-31T09:04:32;100739.09;;;17.12;100.00
49030;BME280;43337;52.070;4.508;2023-07-31T09:07:00;100731.22;;;17.10;100.00
49030;BME280;43337;52.070;4.508;2023-07-31T09:09:26;100735.34;;;17.14;100.00
49030;BME280;43337;52.070;4.508;2023-07-31T09:11:52;100750.56;;;17.25;100.00
49030;BME280;43337;52.070;4.508;2023-07-31T09:14:18;100753.97;;;17.27;100.00
49030;BME280;43337;52.070;4.508;2023-07-31T09:16:54;100764.59;;;17.27;100.00
49030;BME280;43337;52.070;4.508;2023-07-31T09:19:27;100760.97;;;17.28;100.00
49030;BME280;43337;52.070;4.508;2023-07-31T09:21:53;100743.53;;;17.24;100.00
49030;BME280;43337;52.070;4.508;2023-07-31T09:24:29;100749.06;;;17.33;100.00
49030;BME280;43337;52.070;4.508;2023-07-31T09:26:56;100751.59;;;17.35;100.00
49030;BME280;43337;52.070;4.508;2023-07-31T09:29:22;100708.75;;;17.14;100.00
49030;BME280;43337;52.070;4.508;2023-07-31T09:31:48;100734.38;;;17.28;100.00
49030;BME280;43337;52.070;4.508;2023-07-31T09:34:14;100720.09;;;17.29;100.00
49030;BME280;43337;52.070;4.508;2023-07-31T09:36:47;100712.34;;;17.26;100.00
49030;BME280;43337;52.070;4.508;2023-07-31T09:39:13;100734.09;;;17.44;100.00
49030;BME280;43337;52.070;4.508;2023-07-31T09:41:41;100744.31;;;17.50;100.00
49030;BME280;43337;52.070;4.508;2023-07-31T09:44:07;100727.31;;;17.40;100.00
49030;BME280;43337;52.070;4.508;2023-07-31T09:46:35;100744.94;;;17.53;100.00
49030;BME280;43337;52.070;4.508;2023-07-31T09:51:35;100736.13;;;17.53;100.00
49030;BME280;43337;52.070;4.508;2023-07-31T09:54:10;100738.78;;;17.53;100.00
49030;BME280;43337;52.070;4.508;2023-07-31T09:56:46;100708.91;;;17.37;100.00
49030;BME280;43337;52.070;4.508;2023-07-31T09:59:17;100744.19;;;17.51;100.00
49030;BME280;43337;52.070;4.508;2023-07-31T10:01:46;100728.44;;;17.48;100.00
49030;BME280;43337;52.070;4.508;2023-07-31T10:04:13;100717.84;;;17.36;100.00
49030;BME280;43337;52.070;4.508;2023-07-31T10:06:40;100713.50;;;17.35;100.00
49030;BME280;43337;52.070;4.508;2023-07-31T10:09:07;100740.69;;;17.51;100.00
49030;BME280;43337;52.070;4.508;2023-07-31T10:11:56;100735.47;;;17.49;100.00
49030;BME280;43337;52.070;4.508;2023-07-31T10:14:26;100729.91;;;17.52;100.00
49030;BME280;43337;52.070;4.508;2023-07-31T10:16:52;100710.28;;;17.29;100.00
49030;BME280;43337;52.070;4.508;2023-07-31T10:19:18;100711.47;;;17.38;100.00
49030;BME280;43337;52.070;4.508;2023-07-31T10:21:45;100699.97;;;17.38;100.00
49030;BME280;43337;52.070;4.508;2023-07-31T10:24:11;100731.41;;;17.56;100.00
49030;BME280;43337;52.070;4.508;2023-07-31T10:26:38;100752.66;;;17.69;100.00
49030;BME280;43337;52.070;4.508;2023-07-31T10:29:05;100742.63;;;17.73;100.00
49030;BME280;43337;52.070;4.508;2023-07-31T10:31:32;100727.84;;;17.69;100.00
49030;BME280;43337;52.070;4.508;2023-07-31T10:33:58;100717.63;;;17.63;100.00
49030;BME280;43337;52.070;4.508;2023-07-31T10:36:28;100736.88;;;17.79;100.00
49030;BME280;43337;52.070;4.508;2023-07-31T10:38:55;100739.09;;;17.85;100.00
49030;BME280;43337;52.070;4.508;2023-07-31T10:41:29;100722.47;;;17.81;100.00
49030;BME280;43337;52.070;4.508;2023-07-31T10:44:00;100711.63;;;17.72;100.00
49030;BME280;43337;52.070;4.508;2023-07-31T10:46:28;100735.09;;;17.91;100.00
49030;BME280;43337;52.070;4.508;2023-07-31T10:48:58;100731.44;;;17.80;100.00
49030;BME280;43337;52.070;4.508;2023-07-31T10:51:32;100714.00;;;17.76;100.00
49030;BME280;43337;52.070;4.508;2023-07-31T10:54:15;100725.28;;;17.80;100.00
49030;BME280;43337;52.070;4.508;2023-07-31T10:56:46;100737.63;;;17.81;100.00
49030;BME280;43337;52.070;4.508;2023-07-31T10:59:13;100726.97;;;17.81;100.00
49030;BME280;43337;52.070;4.508;2023-07-31T11:01:55;100733.66;;;17.74;100.00
49030;BME280;43337;52.070;4.508;2023-07-31T11:04:27;100716.78;;;17.62;100.00
49030;BME280;43337;52.070;4.508;2023-07-31T11:07:00;100722.63;;;17.67;100.00
49030;BME280;43337;52.070;4.508;2023-07-31T11:09:30;100725.81;;;17.72;100.00
49030;BME280;43337;52.070;4.508;2023-07-31T11:11:56;100692.19;;;17.58;100.00
49030;BME280;43337;52.070;4.508;2023-07-31T11:14:22;100721.13;;;17.76;100.00
49030;BME280;43337;52.070;4.508;2023-07-31T11:16:51;100715.03;;;17.74;100.00
49030;BME280;43337;52.070;4.508;2023-07-31T11:19:24;100722.91;;;17.75;100.00
49030;BME280;43337;52.070;4.508;2023-07-31T11:21:51;100703.03;;;17.68;100.00
49030;BME280;43337;52.070;4.508;2023-07-31T11:24:17;100685.19;;;17.57;100.00
49030;BME280;43337;52.070;4.508;2023-07-31T11:26:52;100693.94;;;17.71;100.00
49030;BME280;43337;52.070;4.508;2023-07-31T11:29:19;100671.41;;;17.64;100.00
49030;BME280;43337;52.070;4.508;2023-07-31T11:31:45;100696.47;;;17.85;100.00
49030;BME280;43337;52.070;4.508;2023-07-31T11:34:11;100665.97;;;17.65;100.00
49030;BME280;43337;52.070;4.508;2023-07-31T11:36:37;100690.16;;;17.86;100.00
49030;BME280;43337;52.070;4.508;2023-07-31T11:39:07;100702.41;;;17.89;100.00
49030;BME280;43337;52.070;4.508;2023-07-31T11:41:33;100706.66;;;17.91;100.00
49030;BME280;43337;52.070;4.508;2023-07-31T11:44:01;100711.13;;;17.91;100.00
49030;BME280;43337;52.070;4.508;2023-07-31T11:46:30;100705.78;;;17.91;100.00
49030;BME280;43337;52.070;4.508;2023-07-31T11:49:00;100721.56;;;17.94;100.00
49030;BME280;43337;52.070;4.508;2023-07-31T11:51:27;100722.66;;;17.91;100.00
49030;BME280;43337;52.070;4.508;2023-07-31T11:53:57;100688.53;;;17.72;100.00
49030;BME280;43337;52.070;4.508;2023-07-31T11:56:24;100732.56;;;17.89;100.00
49030;BME280;43337;52.070;4.508;2023-07-31T11:58:53;100713.16;;;17.87;100.00
49030;BME280;43337;52.070;4.508;2023-07-31T12:01:21;100713.53;;;17.83;100.00
49030;BME280;43337;52.070;4.508;2023-07-31T12:03:47;100707.13;;;17.85;100.00
49030;BME280;43337;52.070;4.508;2023-07-31T12:06:13;100706.91;;;17.88;100.00
49030;BME280;43337;52.070;4.508;2023-07-31T12:08:39;100684.69;;;17.76;100.00
49030;BME280;43337;52.070;4.508;2023-07-31T12:11:06;100676.72;;;17.76;100.00
49030;BME280;43337;52.070;4.508;2023-07-31T12:13:32;100701.44;;;17.90;100.00
49030;BME280;43337;52.070;4.508;2023-07-31T12:16:00;100662.75;;;17.73;100.00
49030;BME280;43337;52.070;4.508;2023-07-31T12:18:27;100655.19;;;17.67;100.00
49030;BME280;43337;52.070;4.508;2023-07-31T12:21:00;100686.22;;;17.92;100.00
49030;BME280;43337;52.070;4.508;2023-07-31T12:23:28;100670.81;;;17.84;100.00
49030;BME280;43337;52.070;4.508;2023-07-31T12:26:11;100664.63;;;17.84;100.00
49030;BME280;43337;52.070;4.508;2023-07-31T12:28:40;100675.66;;;17.90;100.00
49030;BME280;43337;52.070;4.508;2023-07-31T12:31:09;100672.72;;;17.82;100.00
49030;BME280;43337;52.070;4.508;2023-07-31T12:33:36;100666.09;;;17.88;100.00
49030;BME280;43337;52.070;4.508;2023-07-31T12:36:04;100664.63;;;17.95;100.00
49030;BME280;43337;52.070;4.508;2023-07-31T12:38:30;100668.06;;;17.97;100.00
49030;BME280;43337;52.070;4.508;2023-07-31T12:40:55;100650.03;;;18.00;100.00
49030;BME280;43337;52.070;4.508;2023-07-31T12:43:21;100615.50;;;17.88;100.00
49030;BME280;43337;52.070;4.508;2023-07-31T12:45:46;100653.44;;;18.14;100.00
49030;BME280;43337;52.070;4.508;2023-07-31T12:48:13;100653.19;;;18.17;100.00
49030;BME280;43337;52.070;4.508;2023-07-31T12:50:38;100658.06;;;18.23;100.00
49030;BME280;43337;52.070;4.508;2023-07-31T12:53:05;100659.53;;;18.27;100.00
49030;BME280;43337;52.070;4.508;2023-07-31T12:55:30;100671.25;;;18.24;100.00
49030;BME280;43337;52.070;4.508;2023-07-31T12:57:56;100658.78;;;18.25;100.00
49030;BME280;43337;52.070;4.508;2023-07-31T13:00:22;100668.22;;;18.29;100.00
49030;BME280;43337;52.070;4.508;2023-07-31T13:02:47;100623.88;;;18.05;100.00
49030;BME280;43337;52.070;4.508;2023-07-31T13:05:13;100648.84;;;18.27;100.00
49030;BME280;43337;52.070;4.508;2023-07-31T13:07:39;100627.75;;;18.13;100.00